sensor_id;sensor_type;location;lat;lon;timestamp;P1;durP1;ratioP1;P2;durP2;ratioP2
79137;SDS011;68544;45.566;10.238;2024-02-23T00:02:16;2.07;;;1.13;;
79137;SDS011;68544;45.566;10.238;2024-02-23T00:04:42;1.83;;;1.20;;
79137;SDS011;68544;45.566;10.238;2024-02-23T00:07:07;1.40;;;1.10;;
79137;SDS011;68544;45.566;10.238;2024-02-23T00:09:33;2.10;;;0.87;;
79137;SDS011;68544;45.566;10.238;2024-02-23T00:11:58;1.83;;;0.70;;
79137;SDS011;68544;45.566;10.238;2024-02-23T00:14:24;1.80;;;1.10;;
79137;SDS011;68544;45.566;10.238;2024-02-23T00:16:49;2.33;;;1.07;;
79137;SDS011;68544;45.566;10.238;2024-02-23T00:19:14;1.40;;;1.00;;
79137;SDS011;68544;45.566;10.238;2024-02-23T00:21:43;1.92;;;0.90;;
79137;SDS011;68544;45.566;10.238;2024-02-23T00:24:12;2.47;;;0.98;;
79137;SDS011;68544;45.566;10.238;2024-02-23T00:26:38;2.20;;;1.20;;
79137;SDS011;68544;45.566;10.238;2024-02-23T00:29:03;1.20;;;0.80;;
79137;SDS011;68544;45.566;10.238;2024-02-23T00:31:28;1.73;;;0.87;;
79137;SDS011;68544;45.566;10.238;2024-02-23T00:33:54;1.70;;;0.90;;
79137;SDS011;68544;45.566;10.238;2024-02-23T00:36:19;1.63;;;0.83;;
79137;SDS011;68544;45.566;10.238;2024-02-23T00:38:44;1.03;;;0.60;;
79137;SDS011;68544;45.566;10.238;2024-02-23T00:41:10;1.23;;;0.60;;
79137;SDS011;68544;45.566;10.238;2024-02-23T00:43:38;1.17;;;0.50;;
79137;SDS011;68544;45.566;10.238;2024-02-23T00:46:04;1.00;;;0.50;;
79137;SDS011;68544;45.566;10.238;2024-02-23T00:48:30;2.50;;;0.50;;
79137;SDS011;68544;45.566;10.238;2024-02-23T00:50:55;2.57;;;0.93;;
79137;SDS011;68544;45.566;10.238;2024-02-23T00:53:20;1.37;;;0.87;;
79137;SDS011;68544;45.566;10.238;2024-02-23T00:55:46;2.03;;;0.50;;
79137;SDS011;68544;45.566;10.238;2024-02-23T00:58:12;1.40;;;0.57;;
79137;SDS011;68544;45.566;10.238;2024-02-23T01:00:37;1.37;;;0.60;;
79137;SDS011;68544;45.566;10.238;2024-02-23T01:03:03;1.33;;;0.60;;
79137;SDS011;68544;45.566;10.238;2024-02-23T01:05:28;1.13;;;0.57;;
79137;SDS011;68544;45.566;10.238;2024-02-23T01:07:53;0.70;;;0.50;;
79137;SDS011;68544;45.566;10.238;2024-02-23T01:10:19;0.50;;;0.37;;
79137;SDS011;68544;45.566;10.238;2024-02-23T01:12:44;1.00;;;0.50;;
79137;SDS011;68544;45.566;10.238;2024-02-23T01:15:09;1.87;;;0.60;;
79137;SDS011;68544;45.566;10.238;2024-02-23T01:17:35;2.00;;;1.07;;
79137;SDS011;68544;45.566;10.238;2024-02-23T01:20:00;0.90;;;0.70;;
79137;SDS011;68544;45.566;10.238;2024-02-23T01:22:26;0.90;;;0.50;;
79137;SDS011;68544;45.566;10.238;2024-02-23T01:24:51;1.17;;;0.67;;
79137;SDS011;68544;45.566;10.238;2024-02-23T01:27:16;1.67;;;0.60;;
79137;SDS011;68544;45.566;10.238;2024-02-23T01:29:41;3.93;;;0.90;;
79137;SDS011;68544;45.566;10.238;2024-02-23T01:32:07;1.53;;;0.90;;
79137;SDS011;68544;45.566;10.238;2024-02-23T01:34:32;1.27;;;0.77;;
79137;SDS011;68544;45.566;10.238;2024-02-23T01:36:58;2.03;;;0.80;;
79137;SDS011;68544;45.566;10.238;2024-02-23T01:39:24;0.87;;;0.60;;
79137;SDS011;68544;45.566;10.238;2024-02-23T01:41:49;1.03;;;0.63;;
79137;SDS011;68544;45.566;10.238;2024-02-23T01:44:15;1.83;;;0.80;;
79137;SDS011;68544;45.566;10.238;2024-02-23T01:46:42;2.95;;;0.70;;
79137;SDS011;68544;45.566;10.238;2024-02-23T01:49:08;0.80;;;0.60;;
79137;SDS011;68544;45.566;10.238;2024-02-23T01:51:34;1.88;;;0.60;;
79137;SDS011;68544;45.566;10.238;2024-02-23T01:54:00;1.35;;;0.70;;
79137;SDS011;68544;45.566;10.238;2024-02-23T01:56:26;1.02;;;0.57;;
79137;SDS011;68544;45.566;10.238;2024-02-23T01:58:52;1.30;;;0.70;;
79137;SDS011;68544;45.566;10.238;2024-02-23T02:01:18;3.63;;;0.90;;
79137;SDS011;68544;45.566;10.238;2024-02-23T02:03:43;1.50;;;0.90;;
79137;SDS011;68544;45.566;10.238;2024-02-23T02:06:09;2.00;;;0.90;;
79137;SDS011;68544;45.566;10.238;2024-02-23T02:08:35;1.95;;;1.20;;
79137;SDS011;68544;45.566;10.238;2024-02-23T02:11:01;1.50;;;0.93;;
79137;SDS011;68544;45.566;10.238;2024-02-23T02:13:29;1.33;;;0.97;;
79137;SDS011;68544;45.566;10.238;2024-02-23T02:15:55;0.98;;;0.70;;
79137;SDS011;68544;45.566;10.238;2024-02-23T02:18:22;1.23;;;0.60;;
79137;SDS011;68544;45.566;10.238;2024-02-23T02:20:50;0.80;;;0.60;;
79137;SDS011;68544;45.566;10.238;2024-02-23T02:23:18;2.08;;;0.95;;
79137;SDS011;68544;45.566;10.238;2024-02-23T02:25:43;3.83;;;2.43;;
79137;SDS011;68544;45.566;10.238;2024-02-23T02:28:08;2.57;;;1.93;;
79137;SDS011;68544;45.566;10.238;2024-02-23T02:30:33;1.30;;;0.97;;
79137;SDS011;68544;45.566;10.238;2024-02-23T02:32:59;3.70;;;1.73;;
79137;SDS011;68544;45.566;10.238;2024-02-23T02:35:24;2.60;;;1.43;;
79137;SDS011;68544;45.566;10.238;2024-02-23T02:37:49;1.70;;;1.37;;
79137;SDS011;68544;45.566;10.238;2024-02-23T02:40:15;2.10;;;1.40;;
79137;SDS011;68544;45.566;10.238;2024-02-23T02:42:41;3.07;;;1.77;;
79137;SDS011;68544;45.566;10.238;2024-02-23T02:45:06;3.00;;;1.90;;
79137;SDS011;68544;45.566;10.238;2024-02-23T02:47:32;6.57;;;3.30;;
79137;SDS011;68544;45.566;10.238;2024-02-23T02:49:57;6.10;;;3.50;;
79137;SDS011;68544;45.566;10.238;2024-02-23T02:52:22;7.03;;;3.40;;
79137;SDS011;68544;45.566;10.238;2024-02-23T02:54:49;5.75;;;3.50;;
79137;SDS011;68544;45.566;10.238;2024-02-23T02:57:14;5.22;;;3.67;;
79137;SDS011;68544;45.566;10.238;2024-02-23T02:59:40;5.60;;;3.57;;
79137;SDS011;68544;45.566;10.238;2024-02-23T03:02:05;6.37;;;4.03;;
79137;SDS011;68544;45.566;10.238;2024-02-23T03:04:31;5.47;;;2.97;;
79137;SDS011;68544;45.566;10.238;2024-02-23T03:06:56;12.43;;;4.47;;
79137;SDS011;68544;45.566;10.238;2024-02-23T03:09:21;8.77;;;3.70;;
79137;SDS011;68544;45.566;10.238;2024-02-23T03:11:47;4.57;;;3.07;;
79137;SDS011;68544;45.566;10.238;2024-02-23T03:14:12;5.90;;;3.70;;
79137;SDS011;68544;45.566;10.238;2024-02-23T03:16:38;6.93;;;4.10;;
79137;SDS011;68544;45.566;10.238;2024-02-23T03:19:03;7.27;;;3.73;;
79137;SDS011;68544;45.566;10.238;2024-02-23T03:21:29;7.60;;;4.10;;
79137;SDS011;68544;45.566;10.238;2024-02-23T03:23:55;8.05;;;4.35;;
79137;SDS011;68544;45.566;10.238;2024-02-23T03:26:20;7.53;;;4.47;;
79137;SDS011;68544;45.566;10.238;2024-02-23T03:28:46;8.10;;;4.97;;
79137;SDS011;68544;45.566;10.238;2024-02-23T03:31:11;10.47;;;5.00;;
79137;SDS011;68544;45.566;10.238;2024-02-23T03:33:36;7.17;;;4.47;;
79137;SDS011;68544;45.566;10.238;2024-02-23T03:36:02;10.97;;;5.00;;
79137;SDS011;68544;45.566;10.238;2024-02-23T03:38:28;7.05;;;4.25;;
79137;SDS011;68544;45.566;10.238;2024-02-23T03:43:20;5.05;;;3.63;;
79137;SDS011;68544;45.566;10.238;2024-02-23T03:45:45;6.23;;;3.73;;
79137;SDS011;68544;45.566;10.238;2024-02-23T03:48:10;6.30;;;3.90;;
79137;SDS011;68544;45.566;10.238;2024-02-23T03:50:36;5.97;;;3.80;;
79137;SDS011;68544;45.566;10.238;2024-02-23T03:53:01;5.53;;;2.97;;
79137;SDS011;68544;45.566;10.238;2024-02-23T03:55:26;6.33;;;3.83;;
79137;SDS011;68544;45.566;10.238;2024-02-23T03:57:51;5.00;;;3.80;;
79137;SDS011;68544;45.566;10.238;2024-02-23T04:00:17;4.83;;;3.37;;
79137;SDS011;68544;45.566;10.238;2024-02-23T04:02:44;7.25;;;3.78;;
79137;SDS011;68544;45.566;10.238;2024-02-23T04:05:09;7.07;;;3.23;;
79137;SDS011;68544;45.566;10.238;2024-02-23T04:07:35;9.47;;;3.50;;
79137;SDS011;68544;45.566;10.238;2024-02-23T04:10:00;8.07;;;3.63;;
79137;SDS011;68544;45.566;10.238;2024-02-23T04:12:25;7.17;;;3.20;;
79137;SDS011;68544;45.566;10.238;2024-02-23T04:14:50;5.53;;;3.10;;
79137;SDS011;68544;45.566;10.238;2024-02-23T04:17:16;6.67;;;3.40;;
79137;SDS011;68544;45.566;10.238;2024-02-23T04:19:42;5.28;;;3.40;;
79137;SDS011;68544;45.566;10.238;2024-02-23T04:22:08;7.28;;;3.67;;
79137;SDS011;68544;45.566;10.238;2024-02-23T04:24:35;7.68;;;3.60;;
79137;SDS011;68544;45.566;10.238;2024-02-23T04:27:01;6.97;;;3.20;;
79137;SDS011;68544;45.566;10.238;2024-02-23T04:29:27;7.43;;;3.30;;
79137;SDS011;68544;45.566;10.238;2024-02-23T04:31:52;7.97;;;3.53;;
79137;SDS011;68544;45.566;10.238;2024-02-23T04:34:17;7.90;;;2.47;;
79137;SDS011;68544;45.566;10.238;2024-02-23T04:36:43;7.50;;;3.13;;
79137;SDS011;68544;45.566;10.238;2024-02-23T04:39:08;10.30;;;4.20;;
79137;SDS011;68544;45.566;10.238;2024-02-23T04:41:33;8.13;;;3.23;;
79137;SDS011;68544;45.566;10.238;2024-02-23T04:43:59;7.63;;;4.00;;
79137;SDS011;68544;45.566;10.238;2024-02-23T04:46:26;5.53;;;3.42;;
79137;SDS011;68544;45.566;10.238;2024-02-23T04:48:52;4.05;;;2.92;;
79137;SDS011;68544;45.566;10.238;2024-02-23T04:51:17;5.67;;;3.43;;
79137;SDS011;68544;45.566;10.238;2024-02-23T04:54:41;7.03;;;3.58;;
79137;SDS011;68544;45.566;10.238;2024-02-23T04:57:26;7.57;;;3.38;;
79137;SDS011;68544;45.566;10.238;2024-02-23T05:00:50;6.47;;;4.00;;
79137;SDS011;68544;45.566;10.238;2024-02-23T05:04:14;4.82;;;3.20;;
79137;SDS011;68544;45.566;10.238;2024-02-23T05:07:30;7.53;;;3.53;;
79137;SDS011;68544;45.566;10.238;2024-02-23T05:09:56;6.97;;;3.60;;
79137;SDS011;68544;45.566;10.238;2024-02-23T05:12:21;8.93;;;3.57;;
79137;SDS011;68544;45.566;10.238;2024-02-23T05:15:42;7.28;;;3.85;;
79137;SDS011;68544;45.566;10.238;2024-02-23T05:18:15;6.88;;;4.00;;
79137;SDS011;68544;45.566;10.238;2024-02-23T05:20:55;7.78;;;4.15;;
79137;SDS011;68544;45.566;10.238;2024-02-23T05:24:19;6.78;;;4.45;;
79137;SDS011;68544;45.566;10.238;2024-02-23T05:26:45;8.75;;;3.97;;
79137;SDS011;68544;45.566;10.238;2024-02-23T05:30:09;7.57;;;4.32;;
79137;SDS011;68544;45.566;10.238;2024-02-23T05:32:35;6.85;;;4.05;;
79137;SDS011;68544;45.566;10.238;2024-02-23T05:35:00;7.30;;;4.47;;
79137;SDS011;68544;45.566;10.238;2024-02-23T05:37:26;6.78;;;4.60;;
79137;SDS011;68544;45.566;10.238;2024-02-23T05:39:52;6.63;;;4.23;;
79137;SDS011;68544;45.566;10.238;2024-02-23T05:42:18;8.10;;;4.68;;
79137;SDS011;68544;45.566;10.238;2024-02-23T05:44:44;7.27;;;4.00;;
79137;SDS011;68544;45.566;10.238;2024-02-23T05:47:10;6.63;;;4.20;;
79137;SDS011;68544;45.566;10.238;2024-02-23T05:49:35;7.05;;;4.63;;
79137;SDS011;68544;45.566;10.238;2024-02-23T05:52:01;10.23;;;4.23;;
79137;SDS011;68544;45.566;10.238;2024-02-23T05:54:26;6.53;;;4.23;;
79137;SDS011;68544;45.566;10.238;2024-02-23T05:56:51;4.47;;;3.10;;
79137;SDS011;68544;45.566;10.238;2024-02-23T05:59:17;5.50;;;2.97;;
79137;SDS011;68544;45.566;10.238;2024-02-23T06:01:42;6.77;;;4.53;;
79137;SDS011;68544;45.566;10.238;2024-02-23T06:04:07;6.70;;;3.50;;
79137;SDS011;68544;45.566;10.238;2024-02-23T06:06:33;5.73;;;3.80;;
79137;SDS011;68544;45.566;10.238;2024-02-23T06:08:58;5.83;;;3.77;;
79137;SDS011;68544;45.566;10.238;2024-02-23T06:13:50;7.53;;;3.77;;
79137;SDS011;68544;45.566;10.238;2024-02-23T06:16:15;5.33;;;4.10;;
79137;SDS011;68544;45.566;10.238;2024-02-23T06:18:40;7.70;;;4.90;;
79137;SDS011;68544;45.566;10.238;2024-02-23T06:21:15;7.67;;;3.60;;
79137;SDS011;68544;45.566;10.238;2024-02-23T06:23:42;6.70;;;2.90;;
79137;SDS011;68544;45.566;10.238;2024-02-23T06:26:08;6.43;;;3.20;;
79137;SDS011;68544;45.566;10.238;2024-02-23T06:28:34;5.82;;;2.92;;
79137;SDS011;68544;45.566;10.238;2024-02-23T06:30:59;4.95;;;2.50;;
79137;SDS011;68544;45.566;10.238;2024-02-23T06:33:25;5.33;;;2.53;;
79137;SDS011;68544;45.566;10.238;2024-02-23T06:35:50;4.67;;;2.23;;
79137;SDS011;68544;45.566;10.238;2024-02-23T06:38:17;5.70;;;2.53;;
79137;SDS011;68544;45.566;10.238;2024-02-23T06:40:42;5.67;;;3.07;;
79137;SDS011;68544;45.566;10.238;2024-02-23T06:43:08;6.20;;;3.37;;
79137;SDS011;68544;45.566;10.238;2024-02-23T06:45:33;7.50;;;3.73;;
79137;SDS011;68544;45.566;10.238;2024-02-23T06:47:58;6.77;;;3.87;;
79137;SDS011;68544;45.566;10.238;2024-02-23T06:50:24;6.30;;;3.83;;
79137;SDS011;68544;45.566;10.238;2024-02-23T06:52:49;5.90;;;3.57;;
79137;SDS011;68544;45.566;10.238;2024-02-23T06:55:14;4.87;;;3.53;;
79137;SDS011;68544;45.566;10.238;2024-02-23T06:57:41;6.95;;;3.80;;
79137;SDS011;68544;45.566;10.238;2024-02-23T07:00:07;6.27;;;4.07;;
79137;SDS011;68544;45.566;10.238;2024-02-23T07:02:32;9.38;;;4.40;;
79137;SDS011;68544;45.566;10.238;2024-02-23T07:05:01;5.57;;;3.30;;
79137;SDS011;68544;45.566;10.238;2024-02-23T07:07:29;8.48;;;3.78;;
79137;SDS011;68544;45.566;10.238;2024-02-23T07:09:55;9.13;;;3.72;;
79137;SDS011;68544;45.566;10.238;2024-02-23T07:12:21;8.18;;;3.95;;
79137;SDS011;68544;45.566;10.238;2024-02-23T07:14:46;6.47;;;3.93;;
79137;SDS011;68544;45.566;10.238;2024-02-23T07:17:12;5.80;;;3.50;;
79137;SDS011;68544;45.566;10.238;2024-02-23T07:19:37;5.20;;;2.83;;
79137;SDS011;68544;45.566;10.238;2024-02-23T07:22:02;5.93;;;3.50;;
79137;SDS011;68544;45.566;10.238;2024-02-23T07:24:28;5.17;;;3.27;;
79137;SDS011;68544;45.566;10.238;2024-02-23T07:26:53;5.10;;;3.03;;
79137;SDS011;68544;45.566;10.238;2024-02-23T07:29:18;6.13;;;3.30;;
79137;SDS011;68544;45.566;10.238;2024-02-23T07:31:44;3.72;;;2.67;;
79137;SDS011;68544;45.566;10.238;2024-02-23T07:34:09;5.10;;;2.43;;
79137;SDS011;68544;45.566;10.238;2024-02-23T07:36:35;3.97;;;2.60;;
79137;SDS011;68544;45.566;10.238;2024-02-23T07:39:00;6.23;;;2.97;;
79137;SDS011;68544;45.566;10.238;2024-02-23T07:41:25;4.80;;;3.40;;
79137;SDS011;68544;45.566;10.238;2024-02-23T07:43:51;5.10;;;2.90;;
79137;SDS011;68544;45.566;10.238;2024-02-23T07:46:16;5.73;;;2.80;;
79137;SDS011;68544;45.566;10.238;2024-02-23T07:48:42;7.50;;;3.50;;
79137;SDS011;68544;45.566;10.238;2024-02-23T07:51:07;4.50;;;2.43;;
79137;SDS011;68544;45.566;10.238;2024-02-23T07:53:32;4.60;;;2.57;;
79137;SDS011;68544;45.566;10.238;2024-02-23T07:55:59;4.40;;;2.50;;
79137;SDS011;68544;45.566;10.238;2024-02-23T07:58:27;4.68;;;2.33;;
79137;SDS011;68544;45.566;10.238;2024-02-23T08:00:52;5.87;;;2.87;;
79137;SDS011;68544;45.566;10.238;2024-02-23T08:03:18;5.75;;;2.78;;
79137;SDS011;68544;45.566;10.238;2024-02-23T08:05:43;6.38;;;2.60;;
79137;SDS011;68544;45.566;10.238;2024-02-23T08:08:09;3.93;;;2.20;;
79137;SDS011;68544;45.566;10.238;2024-02-23T08:10:34;5.03;;;2.20;;
79137;SDS011;68544;45.566;10.238;2024-02-23T08:12:59;4.40;;;2.13;;
79137;SDS011;68544;45.566;10.238;2024-02-23T08:15:25;4.80;;;2.50;;
79137;SDS011;68544;45.566;10.238;2024-02-23T08:17:50;7.47;;;3.30;;
79137;SDS011;68544;45.566;10.238;2024-02-23T08:20:16;3.67;;;1.97;;
79137;SDS011;68544;45.566;10.238;2024-02-23T08:22:41;6.03;;;2.40;;
79137;SDS011;68544;45.566;10.238;2024-02-23T08:25:06;4.73;;;2.00;;
79137;SDS011;68544;45.566;10.238;2024-02-23T08:27:32;3.28;;;1.95;;
79137;SDS011;68544;45.566;10.238;2024-02-23T08:29:58;5.05;;;2.30;;
79137;SDS011;68544;45.566;10.238;2024-02-23T08:32:24;3.03;;;1.77;;
79137;SDS011;68544;45.566;10.238;2024-02-23T08:34:49;3.77;;;2.00;;
79137;SDS011;68544;45.566;10.238;2024-02-23T08:37:15;4.47;;;1.90;;
79137;SDS011;68544;45.566;10.238;2024-02-23T08:39:41;3.40;;;2.00;;
79137;SDS011;68544;45.566;10.238;2024-02-23T08:42:06;3.97;;;2.03;;
79137;SDS011;68544;45.566;10.238;2024-02-23T08:44:31;4.87;;;2.77;;
79137;SDS011;68544;45.566;10.238;2024-02-23T08:46:57;3.97;;;2.00;;
79137;SDS011;68544;45.566;10.238;2024-02-23T08:49:22;4.70;;;2.13;;
79137;SDS011;68544;45.566;10.238;2024-02-23T08:51:47;3.70;;;2.60;;
79137;SDS011;68544;45.566;10.238;2024-02-23T08:54:13;4.50;;;2.83;;
79137;SDS011;68544;45.566;10.238;2024-02-23T08:56:38;3.27;;;2.37;;
79137;SDS011;68544;45.566;10.238;2024-02-23T08:59:04;4.13;;;2.50;;
79137;SDS011;68544;45.566;10.238;2024-02-23T09:01:29;4.37;;;2.70;;
79137;SDS011;68544;45.566;10.238;2024-02-23T09:03:55;3.23;;;2.13;;
79137;SDS011;68544;45.566;10.238;2024-02-23T09:06:20;3.40;;;2.17;;
79137;SDS011;68544;45.566;10.238;2024-02-23T09:08:45;3.53;;;2.30;;
79137;SDS011;68544;45.566;10.238;2024-02-23T09:11:11;2.73;;;1.90;;
79137;SDS011;68544;45.566;10.238;2024-02-23T09:13:38;3.40;;;1.95;;
79137;SDS011;68544;45.566;10.238;2024-02-23T09:16:04;4.23;;;1.67;;
79137;SDS011;68544;45.566;10.238;2024-02-23T09:18:29;3.03;;;1.70;;
79137;SDS011;68544;45.566;10.238;2024-02-23T09:20:55;3.67;;;2.00;;
79137;SDS011;68544;45.566;10.238;2024-02-23T09:23:20;2.97;;;2.00;;
79137;SDS011;68544;45.566;10.238;2024-02-23T09:25:45;3.90;;;2.40;;
79137;SDS011;68544;45.566;10.238;2024-02-23T09:28:11;3.87;;;2.53;;
79137;SDS011;68544;45.566;10.238;2024-02-23T09:30:36;3.90;;;2.17;;
79137;SDS011;68544;45.566;10.238;2024-02-23T09:33:02;3.35;;;2.00;;
79137;SDS011;68544;45.566;10.238;2024-02-23T09:35:28;2.55;;;1.60;;
79137;SDS011;68544;45.566;10.238;2024-02-23T09:37:53;3.37;;;1.70;;
79137;SDS011;68544;45.566;10.238;2024-02-23T09:40:18;4.10;;;1.70;;
79137;SDS011;68544;45.566;10.238;2024-02-23T09:42:47;2.75;;;1.80;;
79137;SDS011;68544;45.566;10.238;2024-02-23T09:45:21;3.65;;;1.80;;
79137;SDS011;68544;45.566;10.238;2024-02-23T09:47:47;4.57;;;2.00;;
79137;SDS011;68544;45.566;10.238;2024-02-23T09:50:13;2.80;;;1.85;;
79137;SDS011;68544;45.566;10.238;2024-02-23T09:52:40;3.53;;;1.90;;
79137;SDS011;68544;45.566;10.238;2024-02-23T09:55:06;5.07;;;2.10;;
79137;SDS011;68544;45.566;10.238;2024-02-23T09:57:31;3.67;;;2.00;;
79137;SDS011;68544;45.566;10.238;2024-02-23T09:59:57;3.97;;;1.97;;
79137;SDS011;68544;45.566;10.238;2024-02-23T10:02:23;3.13;;;1.90;;
79137;SDS011;68544;45.566;10.238;2024-02-23T10:04:48;3.28;;;2.50;;
79137;SDS011;68544;45.566;10.238;2024-02-23T10:07:16;3.47;;;2.03;;
79137;SDS011;68544;45.566;10.238;2024-02-23T10:09:41;3.20;;;2.20;;
79137;SDS011;68544;45.566;10.238;2024-02-23T10:12:07;3.50;;;2.15;;
79137;SDS011;68544;45.566;10.238;2024-02-23T10:14:33;4.53;;;2.03;;
79137;SDS011;68544;45.566;10.238;2024-02-23T10:16:58;3.30;;;2.07;;
79137;SDS011;68544;45.566;10.238;2024-02-23T10:19:24;4.07;;;2.47;;
79137;SDS011;68544;45.566;10.238;2024-02-23T10:21:53;3.30;;;2.30;;
79137;SDS011;68544;45.566;10.238;2024-02-23T10:24:19;4.93;;;2.40;;
79137;SDS011;68544;45.566;10.238;2024-02-23T10:26:44;2.77;;;2.10;;
79137;SDS011;68544;45.566;10.238;2024-02-23T10:29:10;2.00;;;1.67;;
79137;SDS011;68544;45.566;10.238;2024-02-23T10:31:35;4.03;;;2.27;;
79137;SDS011;68544;45.566;10.238;2024-02-23T10:36:34;4.15;;;2.38;;
79137;SDS011;68544;45.566;10.238;2024-02-23T10:39:01;3.33;;;2.05;;
79137;SDS011;68544;45.566;10.238;2024-02-23T10:41:29;4.47;;;2.28;;
79137;SDS011;68544;45.566;10.238;2024-02-23T10:43:59;5.20;;;2.42;;
79137;SDS011;68544;45.566;10.238;2024-02-23T10:46:25;4.68;;;2.25;;
79137;SDS011;68544;45.566;10.238;2024-02-23T10:48:52;2.60;;;1.90;;
79137;SDS011;68544;45.566;10.238;2024-02-23T10:51:19;3.45;;;1.77;;
79137;SDS011;68544;45.566;10.238;2024-02-23T10:53:46;3.03;;;1.55;;
79137;SDS011;68544;45.566;10.238;2024-02-23T10:56:13;3.92;;;1.70;;
79137;SDS011;68544;45.566;10.238;2024-02-23T10:58:38;2.47;;;1.40;;
79137;SDS011;68544;45.566;10.238;2024-02-23T11:01:05;3.30;;;1.70;;
79137;SDS011;68544;45.566;10.238;2024-02-23T11:03:34;3.00;;;1.73;;
79137;SDS011;68544;45.566;10.238;2024-02-23T11:06:02;3.88;;;1.80;;
79137;SDS011;68544;45.566;10.238;2024-02-23T11:08:28;2.78;;;1.83;;
79137;SDS011;68544;45.566;10.238;2024-02-23T11:10:54;3.60;;;2.15;;
79137;SDS011;68544;45.566;10.238;2024-02-23T11:13:35;3.67;;;2.37;;
79137;SDS011;68544;45.566;10.238;2024-02-23T11:16:02;3.33;;;2.50;;
79137;SDS011;68544;45.566;10.238;2024-02-23T11:18:28;4.10;;;2.42;;
79137;SDS011;68544;45.566;10.238;2024-02-23T11:20:55;5.07;;;2.60;;
79137;SDS011;68544;45.566;10.238;2024-02-23T11:26:04;4.15;;;2.40;;
79137;SDS011;68544;45.566;10.238;2024-02-23T11:28:31;3.17;;;2.08;;
79137;SDS011;68544;45.566;10.238;2024-02-23T11:30:57;4.33;;;2.40;;
79137;SDS011;68544;45.566;10.238;2024-02-23T11:33:27;4.20;;;2.40;;
79137;SDS011;68544;45.566;10.238;2024-02-23T11:36:06;3.20;;;2.30;;
79137;SDS011;68544;45.566;10.238;2024-02-23T11:38:34;3.40;;;2.38;;
79137;SDS011;68544;45.566;10.238;2024-02-23T11:41:00;2.63;;;2.22;;
79137;SDS011;68544;45.566;10.238;2024-02-23T11:43:27;4.15;;;2.40;;
79137;SDS011;68544;45.566;10.238;2024-02-23T11:45:53;4.82;;;2.58;;
79137;SDS011;68544;45.566;10.238;2024-02-23T11:48:18;3.97;;;2.70;;
79137;SDS011;68544;45.566;10.238;2024-02-23T11:50:44;4.45;;;2.42;;
79137;SDS011;68544;45.566;10.238;2024-02-23T11:53:10;3.60;;;2.50;;
79137;SDS011;68544;45.566;10.238;2024-02-23T11:55:35;4.97;;;3.23;;
79137;SDS011;68544;45.566;10.238;2024-02-23T11:58:00;4.47;;;3.10;;
79137;SDS011;68544;45.566;10.238;2024-02-23T12:00:26;3.80;;;2.77;;
79137;SDS011;68544;45.566;10.238;2024-02-23T12:02:53;3.70;;;2.42;;
79137;SDS011;68544;45.566;10.238;2024-02-23T12:05:18;3.40;;;2.60;;
79137;SDS011;68544;45.566;10.238;2024-02-23T12:07:44;5.93;;;3.17;;
79137;SDS011;68544;45.566;10.238;2024-02-23T12:10:09;3.93;;;2.43;;
79137;SDS011;68544;45.566;10.238;2024-02-23T12:15:02;2.22;;;1.52;;
79137;SDS011;68544;45.566;10.238;2024-02-23T12:17:27;1.90;;;1.30;;
79137;SDS011;68544;45.566;10.238;2024-02-23T12:19:59;3.70;;;2.50;;
79137;SDS011;68544;45.566;10.238;2024-02-23T12:22:25;4.45;;;2.63;;
79137;SDS011;68544;45.566;10.238;2024-02-23T12:24:50;3.50;;;2.80;;
79137;SDS011;68544;45.566;10.238;2024-02-23T12:27:19;4.10;;;2.90;;
79137;SDS011;68544;45.566;10.238;2024-02-23T12:29:52;3.78;;;3.00;;
79137;SDS011;68544;45.566;10.238;2024-02-23T12:32:22;4.05;;;3.10;;
79137;SDS011;68544;45.566;10.238;2024-02-23T12:34:48;5.78;;;3.28;;
79137;SDS011;68544;45.566;10.238;2024-02-23T12:37:16;4.37;;;2.97;;
79137;SDS011;68544;45.566;10.238;2024-02-23T12:39:43;3.92;;;2.75;;
79137;SDS011;68544;45.566;10.238;2024-02-23T12:42:08;4.68;;;3.00;;
79137;SDS011;68544;45.566;10.238;2024-02-23T12:44:33;5.77;;;2.40;;
79137;SDS011;68544;45.566;10.238;2024-02-23T12:46:59;3.70;;;2.87;;
79137;SDS011;68544;45.566;10.238;2024-02-23T12:49:24;3.73;;;2.63;;
79137;SDS011;68544;45.566;10.238;2024-02-23T12:51:49;3.57;;;2.80;;
79137;SDS011;68544;45.566;10.238;2024-02-23T12:54:15;4.30;;;2.90;;
79137;SDS011;68544;45.566;10.238;2024-02-23T12:56:40;4.30;;;3.00;;
79137;SDS011;68544;45.566;10.238;2024-02-23T12:59:05;3.70;;;2.80;;
79137;SDS011;68544;45.566;10.238;2024-02-23T13:04:01;4.05;;;2.95;;
79137;SDS011;68544;45.566;10.238;2024-02-23T13:06:26;4.97;;;3.73;;
79137;SDS011;68544;45.566;10.238;2024-02-23T13:08:52;6.23;;;4.47;;
79137;SDS011;68544;45.566;10.238;2024-02-23T13:11:17;4.97;;;3.80;;
79137;SDS011;68544;45.566;10.238;2024-02-23T13:13:43;7.97;;;4.63;;
79137;SDS011;68544;45.566;10.238;2024-02-23T13:16:08;6.23;;;4.07;;
79137;SDS011;68544;45.566;10.238;2024-02-23T13:18:33;6.70;;;4.03;;
79137;SDS011;68544;45.566;10.238;2024-02-23T13:20:59;4.90;;;4.00;;
79137;SDS011;68544;45.566;10.238;2024-02-23T13:23:24;5.60;;;3.67;;
79137;SDS011;68544;45.566;10.238;2024-02-23T13:25:50;4.77;;;4.00;;
79137;SDS011;68544;45.566;10.238;2024-02-23T13:28:15;5.13;;;3.93;;
79137;SDS011;68544;45.566;10.238;2024-02-23T13:30:40;4.63;;;3.60;;
79137;SDS011;68544;45.566;10.238;2024-02-23T13:33:06;5.67;;;4.30;;
79137;SDS011;68544;45.566;10.238;2024-02-23T13:35:33;5.25;;;4.75;;
79137;SDS011;68544;45.566;10.238;2024-02-23T13:37:59;5.60;;;4.70;;
79137;SDS011;68544;45.566;10.238;2024-02-23T13:40:24;4.22;;;3.50;;
79137;SDS011;68544;45.566;10.238;2024-02-23T13:42:50;4.70;;;3.30;;
79137;SDS011;68544;45.566;10.238;2024-02-23T13:45:15;5.27;;;3.70;;
79137;SDS011;68544;45.566;10.238;2024-02-23T13:50:08;4.72;;;3.58;;
79137;SDS011;68544;45.566;10.238;2024-02-23T13:52:34;6.70;;;4.00;;
79137;SDS011;68544;45.566;10.238;2024-02-23T13:54:59;5.63;;;4.10;;
79137;SDS011;68544;45.566;10.238;2024-02-23T13:57:25;4.03;;;3.42;;
79137;SDS011;68544;45.566;10.238;2024-02-23T13:59:51;4.13;;;3.13;;
79137;SDS011;68544;45.566;10.238;2024-02-23T14:02:16;4.17;;;3.50;;
79137;SDS011;68544;45.566;10.238;2024-02-23T14:04:43;4.72;;;4.03;;
79137;SDS011;68544;45.566;10.238;2024-02-23T14:09:35;4.80;;;3.50;;
79137;SDS011;68544;45.566;10.238;2024-02-23T14:12:00;5.37;;;3.83;;
79137;SDS011;68544;45.566;10.238;2024-02-23T14:14:26;4.70;;;3.90;;
79137;SDS011;68544;45.566;10.238;2024-02-23T14:16:51;5.00;;;4.23;;
79137;SDS011;68544;45.566;10.238;2024-02-23T14:19:16;5.27;;;3.83;;
79137;SDS011;68544;45.566;10.238;2024-02-23T14:21:42;5.83;;;2.97;;
79137;SDS011;68544;45.566;10.238;2024-02-23T14:24:07;3.77;;;2.97;;
79137;SDS011;68544;45.566;10.238;2024-02-23T14:26:32;4.40;;;2.97;;
79137;SDS011;68544;45.566;10.238;2024-02-23T14:28:58;4.53;;;2.90;;
79137;SDS011;68544;45.566;10.238;2024-02-23T14:31:24;3.80;;;2.70;;
79137;SDS011;68544;45.566;10.238;2024-02-23T14:33:50;5.03;;;3.10;;
79137;SDS011;68544;45.566;10.238;2024-02-23T14:36:16;4.93;;;3.27;;
79137;SDS011;68544;45.566;10.238;2024-02-23T14:38:42;3.65;;;3.08;;
79137;SDS011;68544;45.566;10.238;2024-02-23T14:41:07;3.75;;;3.28;;
79137;SDS011;68544;45.566;10.238;2024-02-23T14:43:34;5.72;;;5.07;;
79137;SDS011;68544;45.566;10.238;2024-02-23T14:45:59;6.78;;;5.25;;
79137;SDS011;68544;45.566;10.238;2024-02-23T14:48:25;6.03;;;5.47;;
79137;SDS011;68544;45.566;10.238;2024-02-23T14:50:50;7.40;;;5.30;;
79137;SDS011;68544;45.566;10.238;2024-02-23T14:53:15;5.80;;;5.17;;